Brogan, Oregon
Current Conditions -  °F | °C
As of 7:10 AM on Saturday 20 Dec 2014 (Local Time) from KONO Reporting Station
Light Rain Light Rain  
Wind Chill: 36°   Ceiling: 3900
Heat Index: 36°   Visibility: 2.5mi
Dew Point: 34°   Wind: 3mph
Humidity: 93%   Direction: 60°ENE
Pressure: 30.03"   Gusts: NA
Location:  44.25°N, 117.52°W
Report Text: KONO 201410Z AUTO 06003KT 2 1/2SM -RA BR OVC039 02/01 A3003 RMK AO2 P0001 T00220011
Loading
Personal Weather Stations






























Interactive Weather Map New forecast layout! Learn more

10-Day Weather Forecast

Advertisements
Track Severe Weather on mobile